sensor_id;sensor_type;location;lat;lon;timestamp;pressure;altitude;pressure_sealevel;temperature;humidity
54194;BME280;40102;50.906;6.972;2023-05-29T00:01:58;101306.19;;;20.51;48.21
54194;BME280;40102;50.906;6.972;2023-05-29T00:04:26;101316.22;;;20.51;48.06
54194;BME280;40102;50.906;6.972;2023-05-29T00:06:52;101315.63;;;20.47;48.11
54194;BME280;40102;50.906;6.972;2023-05-29T00:09:17;101308.59;;;20.45;48.23
54194;BME280;40102;50.906;6.972;2023-05-29T00:11:43;101307.88;;;20.43;48.47
54194;BME280;40102;50.906;6.972;2023-05-29T00:14:08;101316.88;;;20.43;48.53
54194;BME280;40102;50.906;6.972;2023-05-29T00:16:39;101320.47;;;20.44;48.40
54194;BME280;40102;50.906;6.972;2023-05-29T00:19:05;101328.88;;;20.41;48.52
54194;BME280;40102;50.906;6.972;2023-05-29T00:21:30;101316.78;;;20.33;48.65
54194;BME280;40102;50.906;6.972;2023-05-29T00:23:55;101321.97;;;20.36;48.94
54194;BME280;40102;50.906;6.972;2023-05-29T00:26:21;101323.81;;;20.36;48.93
54194;BME280;40102;50.906;6.972;2023-05-29T00:28:47;101325.94;;;20.32;48.80
54194;BME280;40102;50.906;6.972;2023-05-29T00:31:12;101323.34;;;20.31;49.04
54194;BME280;40102;50.906;6.972;2023-05-29T00:33:37;101326.34;;;20.28;49.33
54194;BME280;40102;50.906;6.972;2023-05-29T00:36:03;101333.03;;;20.24;49.49
54194;BME280;40102;50.906;6.972;2023-05-29T00:38:29;101328.84;;;20.20;49.67
54194;BME280;40102;50.906;6.972;2023-05-29T00:40:54;101327.13;;;20.19;49.70
54194;BME280;40102;50.906;6.972;2023-05-29T00:43:20;101334.56;;;20.17;49.42
54194;BME280;40102;50.906;6.972;2023-05-29T00:45:45;101330.97;;;20.16;49.56
54194;BME280;40102;50.906;6.972;2023-05-29T00:48:11;101318.91;;;20.09;49.89
54194;BME280;40102;50.906;6.972;2023-05-29T00:50:36;101315.47;;;20.07;49.98
54194;BME280;40102;50.906;6.972;2023-05-29T00:53:05;101323.16;;;20.02;50.01
54194;BME280;40102;50.906;6.972;2023-05-29T00:55:31;101318.97;;;19.98;50.08
54194;BME280;40102;50.906;6.972;2023-05-29T00:57:56;101331.97;;;19.94;50.42
54194;BME280;40102;50.906;6.972;2023-05-29T01:00:22;101325.06;;;19.90;50.33
54194;BME280;40102;50.906;6.972;2023-05-29T01:02:48;101329.38;;;19.93;49.98
54194;BME280;40102;50.906;6.972;2023-05-29T01:05:14;101319.38;;;19.93;49.91
54194;BME280;40102;50.906;6.972;2023-05-29T01:07:44;101329.09;;;19.96;50.24
54194;BME280;40102;50.906;6.972;2023-05-29T01:10:09;101331.69;;;19.97;50.14
54194;BME280;40102;50.906;6.972;2023-05-29T01:13:13;101325.41;;;19.97;50.04
54194;BME280;40102;50.906;6.972;2023-05-29T01:16:01;101331.63;;;19.88;50.54
54194;BME280;40102;50.906;6.972;2023-05-29T01:18:39;101330.69;;;19.78;50.78
54194;BME280;40102;50.906;6.972;2023-05-29T01:21:17;101339.59;;;19.68;50.67
54194;BME280;40102;50.906;6.972;2023-05-29T01:24:02;101337.53;;;19.61;51.08
54194;BME280;40102;50.906;6.972;2023-05-29T01:29:02;101344.59;;;19.52;50.85
54194;BME280;40102;50.906;6.972;2023-05-29T01:31:30;101343.59;;;19.53;50.96
54194;BME280;40102;50.906;6.972;2023-05-29T01:33:57;101339.50;;;19.48;51.05
54194;BME280;40102;50.906;6.972;2023-05-29T01:36:25;101345.19;;;19.45;51.29
54194;BME280;40102;50.906;6.972;2023-05-29T01:38:53;101340.63;;;19.45;51.11
54194;BME280;40102;50.906;6.972;2023-05-29T01:41:21;101352.59;;;19.42;50.97
54194;BME280;40102;50.906;6.972;2023-05-29T01:43:47;101353.97;;;19.37;50.95
54194;BME280;40102;50.906;6.972;2023-05-29T01:46:13;101357.78;;;19.34;50.96
54194;BME280;40102;50.906;6.972;2023-05-29T01:48:43;101360.50;;;19.34;50.90
54194;BME280;40102;50.906;6.972;2023-05-29T01:51:10;101364.19;;;19.33;50.76
54194;BME280;40102;50.906;6.972;2023-05-29T01:53:39;101364.44;;;19.30;50.62
54194;BME280;40102;50.906;6.972;2023-05-29T01:56:06;101364.31;;;19.32;50.87
54194;BME280;40102;50.906;6.972;2023-05-29T01:58:33;101358.16;;;19.30;51.05
54194;BME280;40102;50.906;6.972;2023-05-29T02:00:59;101360.88;;;19.30;50.62
54194;BME280;40102;50.906;6.972;2023-05-29T02:03:25;101363.22;;;19.23;50.42
54194;BME280;40102;50.906;6.972;2023-05-29T02:05:54;101369.75;;;19.21;50.32
54194;BME280;40102;50.906;6.972;2023-05-29T02:08:20;101367.69;;;19.13;50.41
54194;BME280;40102;50.906;6.972;2023-05-29T02:10:46;101363.63;;;19.07;50.18
54194;BME280;40102;50.906;6.972;2023-05-29T02:13:11;101371.75;;;19.07;50.21
54194;BME280;40102;50.906;6.972;2023-05-29T02:15:36;101373.97;;;19.02;50.26
54194;BME280;40102;50.906;6.972;2023-05-29T02:18:02;101380.63;;;18.98;50.35
54194;BME280;40102;50.906;6.972;2023-05-29T02:20:27;101372.63;;;18.97;49.97
54194;BME280;40102;50.906;6.972;2023-05-29T02:22:53;101371.63;;;18.98;49.86
54194;BME280;40102;50.906;6.972;2023-05-29T02:25:18;101374.72;;;19.04;50.02
54194;BME280;40102;50.906;6.972;2023-05-29T02:27:44;101379.03;;;19.07;49.57
54194;BME280;40102;50.906;6.972;2023-05-29T02:30:09;101388.25;;;19.04;49.61
54194;BME280;40102;50.906;6.972;2023-05-29T02:32:35;101373.22;;;19.00;49.71
54194;BME280;40102;50.906;6.972;2023-05-29T02:35:01;101384.06;;;19.00;49.82
54194;BME280;40102;50.906;6.972;2023-05-29T02:37:36;101401.31;;;18.99;49.79
54194;BME280;40102;50.906;6.972;2023-05-29T02:40:01;101400.47;;;18.99;49.98
54194;BME280;40102;50.906;6.972;2023-05-29T02:42:27;101409.34;;;18.90;49.91
54194;BME280;40102;50.906;6.972;2023-05-29T02:44:52;101405.13;;;18.86;49.61
54194;BME280;40102;50.906;6.972;2023-05-29T02:47:17;101407.22;;;18.82;49.18
54194;BME280;40102;50.906;6.972;2023-05-29T02:49:43;101407.34;;;18.81;49.33
54194;BME280;40102;50.906;6.972;2023-05-29T02:52:08;101398.84;;;18.74;49.06
54194;BME280;40102;50.906;6.972;2023-05-29T02:54:34;101404.50;;;18.71;48.91
54194;BME280;40102;50.906;6.972;2023-05-29T02:56:59;101400.06;;;18.70;49.42
54194;BME280;40102;50.906;6.972;2023-05-29T02:59:24;101393.28;;;18.64;49.18
54194;BME280;40102;50.906;6.972;2023-05-29T03:01:50;101402.41;;;18.63;49.21
54194;BME280;40102;50.906;6.972;2023-05-29T03:04:19;101397.44;;;18.57;49.52
54194;BME280;40102;50.906;6.972;2023-05-29T03:06:45;101408.00;;;18.49;49.58
54194;BME280;40102;50.906;6.972;2023-05-29T03:09:10;101417.00;;;18.50;49.87
54194;BME280;40102;50.906;6.972;2023-05-29T03:11:37;101407.88;;;18.51;49.35
54194;BME280;40102;50.906;6.972;2023-05-29T03:14:03;101413.69;;;18.57;49.46
54194;BME280;40102;50.906;6.972;2023-05-29T03:16:28;101405.06;;;18.52;49.61
54194;BME280;40102;50.906;6.972;2023-05-29T03:18:54;101408.00;;;18.49;49.42
54194;BME280;40102;50.906;6.972;2023-05-29T03:21:20;101413.03;;;18.42;49.63
54194;BME280;40102;50.906;6.972;2023-05-29T03:23:46;101418.56;;;18.41;49.58
54194;BME280;40102;50.906;6.972;2023-05-29T03:26:12;101413.63;;;18.35;49.67
54194;BME280;40102;50.906;6.972;2023-05-29T03:28:38;101424.06;;;18.28;50.12
54194;BME280;40102;50.906;6.972;2023-05-29T03:31:03;101424.44;;;18.24;50.25
54194;BME280;40102;50.906;6.972;2023-05-29T03:33:29;101423.91;;;18.19;50.05
54194;BME280;40102;50.906;6.972;2023-05-29T03:35:54;101413.44;;;18.14;50.17
54194;BME280;40102;50.906;6.972;2023-05-29T03:38:20;101421.56;;;18.14;50.27
54194;BME280;40102;50.906;6.972;2023-05-29T03:40:45;101434.75;;;18.19;50.39
54194;BME280;40102;50.906;6.972;2023-05-29T03:43:11;101424.66;;;18.21;50.13
54194;BME280;40102;50.906;6.972;2023-05-29T03:45:36;101429.34;;;18.19;50.18
54194;BME280;40102;50.906;6.972;2023-05-29T03:48:02;101428.31;;;18.08;50.84
54194;BME280;40102;50.906;6.972;2023-05-29T03:50:27;101433.94;;;18.05;50.90
54194;BME280;40102;50.906;6.972;2023-05-29T03:52:53;101427.56;;;18.06;51.01
54194;BME280;40102;50.906;6.972;2023-05-29T03:55:18;101428.94;;;18.12;50.73
54194;BME280;40102;50.906;6.972;2023-05-29T03:57:43;101436.19;;;18.11;50.76
54194;BME280;40102;50.906;6.972;2023-05-29T04:00:10;101435.31;;;18.11;50.62
54194;BME280;40102;50.906;6.972;2023-05-29T04:02:37;101435.69;;;18.06;50.75
54194;BME280;40102;50.906;6.972;2023-05-29T04:05:03;101442.69;;;18.09;50.63
54194;BME280;40102;50.906;6.972;2023-05-29T04:07:29;101445.19;;;18.12;50.69
54194;BME280;40102;50.906;6.972;2023-05-29T04:09:54;101442.59;;;18.10;50.50
54194;BME280;40102;50.906;6.972;2023-05-29T04:12:19;101438.63;;;18.03;50.71
54194;BME280;40102;50.906;6.972;2023-05-29T04:14:45;101446.63;;;18.05;50.70
54194;BME280;40102;50.906;6.972;2023-05-29T04:17:10;101448.47;;;18.04;51.04
54194;BME280;40102;50.906;6.972;2023-05-29T04:19:35;101450.78;;;17.98;50.93
54194;BME280;40102;50.906;6.972;2023-05-29T04:22:01;101451.75;;;17.97;51.07
54194;BME280;40102;50.906;6.972;2023-05-29T04:24:26;101461.81;;;17.95;50.83
54194;BME280;40102;50.906;6.972;2023-05-29T04:26:52;101453.19;;;17.90;51.05
54194;BME280;40102;50.906;6.972;2023-05-29T04:29:17;101460.22;;;17.92;50.71
54194;BME280;40102;50.906;6.972;2023-05-29T04:31:43;101460.72;;;17.97;50.58
54194;BME280;40102;50.906;6.972;2023-05-29T04:34:09;101457.91;;;17.99;50.72
54194;BME280;40102;50.906;6.972;2023-05-29T04:36:35;101468.50;;;18.02;50.63
54194;BME280;40102;50.906;6.972;2023-05-29T04:39:06;101475.88;;;18.00;50.70
54194;BME280;40102;50.906;6.972;2023-05-29T04:41:32;101472.66;;;17.95;50.90
54194;BME280;40102;50.906;6.972;2023-05-29T04:43:57;101472.53;;;17.96;50.92
54194;BME280;40102;50.906;6.972;2023-05-29T04:46:24;101472.19;;;18.01;50.85
54194;BME280;40102;50.906;6.972;2023-05-29T04:48:50;101480.09;;;18.04;50.57
54194;BME280;40102;50.906;6.972;2023-05-29T04:51:22;101483.66;;;18.04;50.74
54194;BME280;40102;50.906;6.972;2023-05-29T04:53:49;101481.28;;;18.00;50.94
54194;BME280;40102;50.906;6.972;2023-05-29T04:56:15;101482.84;;;17.91;50.98
54194;BME280;40102;50.906;6.972;2023-05-29T04:58:41;101480.59;;;17.85;51.24
54194;BME280;40102;50.906;6.972;2023-05-29T05:01:07;101485.25;;;17.83;51.03
54194;BME280;40102;50.906;6.972;2023-05-29T05:03:34;101494.22;;;17.84;51.18
54194;BME280;40102;50.906;6.972;2023-05-29T05:06:00;101491.53;;;17.84;51.18
54194;BME280;40102;50.906;6.972;2023-05-29T05:08:30;101488.19;;;17.80;51.35
54194;BME280;40102;50.906;6.972;2023-05-29T05:10:57;101492.22;;;17.74;51.38
54194;BME280;40102;50.906;6.972;2023-05-29T05:13:23;101487.34;;;17.67;51.72
54194;BME280;40102;50.906;6.972;2023-05-29T05:15:49;101484.97;;;17.62;51.71
54194;BME280;40102;50.906;6.972;2023-05-29T05:18:14;101503.66;;;17.65;51.46
54194;BME280;40102;50.906;6.972;2023-05-29T05:20:39;101488.97;;;17.57;51.80
54194;BME280;40102;50.906;6.972;2023-05-29T05:23:05;101490.59;;;17.59;51.85
54194;BME280;40102;50.906;6.972;2023-05-29T05:25:31;101496.44;;;17.66;51.93
54194;BME280;40102;50.906;6.972;2023-05-29T05:27:58;101497.31;;;17.66;51.78
54194;BME280;40102;50.906;6.972;2023-05-29T05:30:23;101505.22;;;17.69;51.73
54194;BME280;40102;50.906;6.972;2023-05-29T05:32:48;101497.19;;;17.68;51.75
54194;BME280;40102;50.906;6.972;2023-05-29T05:35:14;101495.13;;;17.71;51.89
54194;BME280;40102;50.906;6.972;2023-05-29T05:37:39;101502.81;;;17.77;51.77
54194;BME280;40102;50.906;6.972;2023-05-29T05:40:06;101508.00;;;17.80;51.61
54194;BME280;40102;50.906;6.972;2023-05-29T05:42:32;101510.91;;;17.77;51.89
54194;BME280;40102;50.906;6.972;2023-05-29T05:44:57;101498.59;;;17.73;51.80
54194;BME280;40102;50.906;6.972;2023-05-29T05:47:23;101500.53;;;17.71;51.89
54194;BME280;40102;50.906;6.972;2023-05-29T05:49:48;101508.66;;;17.71;52.16
54194;BME280;40102;50.906;6.972;2023-05-29T05:52:17;101517.41;;;17.75;52.01
54194;BME280;40102;50.906;6.972;2023-05-29T05:54:42;101510.16;;;17.75;51.98
54194;BME280;40102;50.906;6.972;2023-05-29T05:57:07;101520.75;;;17.78;52.13
54194;BME280;40102;50.906;6.972;2023-05-29T05:59:33;101524.34;;;17.79;51.90
54194;BME280;40102;50.906;6.972;2023-05-29T06:02:01;101522.50;;;17.79;52.00
54194;BME280;40102;50.906;6.972;2023-05-29T06:04:29;101516.09;;;17.80;52.03
54194;BME280;40102;50.906;6.972;2023-05-29T06:06:54;101514.03;;;17.84;52.15
54194;BME280;40102;50.906;6.972;2023-05-29T06:09:20;101518.25;;;17.88;51.78
54194;BME280;40102;50.906;6.972;2023-05-29T06:11:45;101517.91;;;17.93;51.94
54194;BME280;40102;50.906;6.972;2023-05-29T06:14:11;101522.56;;;17.91;52.09
54194;BME280;40102;50.906;6.972;2023-05-29T06:16:36;101514.69;;;17.88;51.96
54194;BME280;40102;50.906;6.972;2023-05-29T06:19:02;101526.78;;;17.95;51.70
54194;BME280;40102;50.906;6.972;2023-05-29T06:21:29;101526.66;;;17.96;51.64
54194;BME280;40102;50.906;6.972;2023-05-29T06:23:54;101527.31;;;18.00;51.60
54194;BME280;40102;50.906;6.972;2023-05-29T06:26:20;101523.72;;;17.99;51.38
54194;BME280;40102;50.906;6.972;2023-05-29T06:28:46;101538.13;;;18.00;51.64
54194;BME280;40102;50.906;6.972;2023-05-29T06:31:11;101532.50;;;18.03;51.53
54194;BME280;40102;50.906;6.972;2023-05-29T06:33:37;101532.50;;;18.03;51.24
54194;BME280;40102;50.906;6.972;2023-05-29T06:36:03;101531.41;;;18.05;51.45
54194;BME280;40102;50.906;6.972;2023-05-29T06:38:31;101530.66;;;18.03;51.39
54194;BME280;40102;50.906;6.972;2023-05-29T06:40:56;101541.38;;;18.05;51.74
54194;BME280;40102;50.906;6.972;2023-05-29T06:43:22;101541.13;;;18.08;51.74
54194;BME280;40102;50.906;6.972;2023-05-29T06:45:47;101535.50;;;18.11;51.33
54194;BME280;40102;50.906;6.972;2023-05-29T06:48:13;101538.09;;;18.12;51.14
54194;BME280;40102;50.906;6.972;2023-05-29T06:50:38;101533.31;;;18.16;50.92
54194;BME280;40102;50.906;6.972;2023-05-29T06:53:03;101537.63;;;18.19;50.92
54194;BME280;40102;50.906;6.972;2023-05-29T06:55:29;101531.25;;;18.20;50.72
54194;BME280;40102;50.906;6.972;2023-05-29T06:57:54;101533.84;;;18.21;50.83
54194;BME280;40102;50.906;6.972;2023-05-29T07:00:19;101540.97;;;18.22;50.67
54194;BME280;40102;50.906;6.972;2023-05-29T07:02:45;101544.31;;;18.26;50.74
54194;BME280;40102;50.906;6.972;2023-05-29T07:05:10;101540.97;;;18.22;50.42
54194;BME280;40102;50.906;6.972;2023-05-29T07:07:36;101540.00;;;18.23;50.72
54194;BME280;40102;50.906;6.972;2023-05-29T07:10:01;101532.84;;;18.22;50.64
54194;BME280;40102;50.906;6.972;2023-05-29T07:12:27;101532.09;;;18.20;50.79
54194;BME280;40102;50.906;6.972;2023-05-29T07:14:52;101538.38;;;18.21;50.65
54194;BME280;40102;50.906;6.972;2023-05-29T07:17:17;101544.03;;;18.18;50.26
54194;BME280;40102;50.906;6.972;2023-05-29T07:19:43;101541.09;;;18.21;50.39
54194;BME280;40102;50.906;6.972;2023-05-29T07:22:08;101544.31;;;18.26;50.21
54194;BME280;40102;50.906;6.972;2023-05-29T07:24:34;101543.34;;;18.27;50.16
54194;BME280;40102;50.906;6.972;2023-05-29T07:26:59;101543.09;;;18.30;50.53
54194;BME280;40102;50.906;6.972;2023-05-29T07:29:26;101543.84;;;18.32;50.44
54194;BME280;40102;50.906;6.972;2023-05-29T07:31:51;101540.91;;;18.35;50.13
54194;BME280;40102;50.906;6.972;2023-05-29T07:34:17;101541.94;;;18.21;50.44
54194;BME280;40102;50.906;6.972;2023-05-29T07:37:15;101549.97;;;18.23;50.93
54194;BME280;40102;50.906;6.972;2023-05-29T07:39:40;101548.06;;;18.36;51.25
54194;BME280;40102;50.906;6.972;2023-05-29T07:42:06;101539.34;;;18.43;50.65
54194;BME280;40102;50.906;6.972;2023-05-29T07:44:31;101545.81;;;18.54;50.54
54194;BME280;40102;50.906;6.972;2023-05-29T07:46:57;101537.56;;;18.55;49.75
54194;BME280;40102;50.906;6.972;2023-05-29T07:49:22;101549.97;;;18.70;50.30
54194;BME280;40102;50.906;6.972;2023-05-29T07:51:48;101549.38;;;18.78;49.89
54194;BME280;40102;50.906;6.972;2023-05-29T07:54:13;101542.97;;;18.79;49.24
54194;BME280;40102;50.906;6.972;2023-05-29T07:56:39;101546.66;;;18.78;49.29
54194;BME280;40102;50.906;6.972;2023-05-29T07:59:06;101548.63;;;18.76;49.24
54194;BME280;40102;50.906;6.972;2023-05-29T08:01:32;101556.25;;;18.71;49.44
54194;BME280;40102;50.906;6.972;2023-05-29T08:03:57;101556.38;;;18.69;49.30
54194;BME280;40102;50.906;6.972;2023-05-29T08:06:22;101550.44;;;18.64;49.43
54194;BME280;40102;50.906;6.972;2023-05-29T08:08:48;101554.88;;;18.65;49.68
54194;BME280;40102;50.906;6.972;2023-05-29T08:11:14;101559.44;;;18.65;49.19
54194;BME280;40102;50.906;6.972;2023-05-29T08:13:39;101556.72;;;18.65;49.34
54194;BME280;40102;50.906;6.972;2023-05-29T08:16:05;101560.41;;;18.64;49.41
54194;BME280;40102;50.906;6.972;2023-05-29T08:18:31;101561.28;;;18.64;49.60
54194;BME280;40102;50.906;6.972;2023-05-29T08:20:58;101564.72;;;18.66;49.67
54194;BME280;40102;50.906;6.972;2023-05-29T08:23:24;101560.19;;;18.67;49.90
54194;BME280;40102;50.906;6.972;2023-05-29T08:25:49;101557.34;;;18.68;49.68
54194;BME280;40102;50.906;6.972;2023-05-29T08:28:15;101565.38;;;18.70;49.61
54194;BME280;40102;50.906;6.972;2023-05-29T08:30:41;101558.34;;;18.67;49.87
54194;BME280;40102;50.906;6.972;2023-05-29T08:33:06;101547.63;;;18.66;49.92
54194;BME280;40102;50.906;6.972;2023-05-29T08:35:32;101551.94;;;18.68;49.99
54194;BME280;40102;50.906;6.972;2023-05-29T08:37:58;101545.78;;;18.66;49.76
54194;BME280;40102;50.906;6.972;2023-05-29T08:40:24;101553.53;;;18.71;49.91
54194;BME280;40102;50.906;6.972;2023-05-29T08:43:14;101547.25;;;18.70;49.71
54194;BME280;40102;50.906;6.972;2023-05-29T08:45:44;101556.88;;;18.74;49.76
54194;BME280;40102;50.906;6.972;2023-05-29T08:48:11;101552.31;;;18.75;49.74
54194;BME280;40102;50.906;6.972;2023-05-29T08:50:46;101551.22;;;18.77;49.71
54194;BME280;40102;50.906;6.972;2023-05-29T08:53:13;101549.16;;;18.81;49.83
54194;BME280;40102;50.906;6.972;2023-05-29T08:55:39;101544.47;;;18.83;49.68
54194;BME280;40102;50.906;6.972;2023-05-29T08:58:05;101551.50;;;18.86;49.74
54194;BME280;40102;50.906;6.972;2023-05-29T09:00:32;101553.97;;;18.89;49.72
54194;BME280;40102;50.906;6.972;2023-05-29T09:02:58;101548.44;;;18.90;49.89
54194;BME280;40102;50.906;6.972;2023-05-29T09:05:28;101541.91;;;18.93;49.75
54194;BME280;40102;50.906;6.972;2023-05-29T09:07:53;101544.50;;;18.94;49.80
54194;BME280;40102;50.906;6.972;2023-05-29T09:10:19;101551.66;;;18.95;49.51
54194;BME280;40102;50.906;6.972;2023-05-29T09:12:46;101541.66;;;18.96;49.75
54194;BME280;40102;50.906;6.972;2023-05-29T09:15:21;101547.84;;;18.98;49.36
54194;BME280;40102;50.906;6.972;2023-05-29T09:17:54;101544.25;;;18.97;49.57
54194;BME280;40102;50.906;6.972;2023-05-29T09:20:21;101545.00;;;18.99;49.49
54194;BME280;40102;50.906;6.972;2023-05-29T09:22:57;101545.88;;;19.00;49.36
54194;BME280;40102;50.906;6.972;2023-05-29T09:25:24;101542.28;;;18.99;49.35
54194;BME280;40102;50.906;6.972;2023-05-29T09:28:01;101543.03;;;19.01;49.36
54194;BME280;40102;50.906;6.972;2023-05-29T09:30:45;101536.50;;;19.04;49.53
54194;BME280;40102;50.906;6.972;2023-05-29T09:33:14;101545.50;;;19.04;49.61
54194;BME280;40102;50.906;6.972;2023-05-29T09:35:41;101549.72;;;19.08;49.93
54194;BME280;40102;50.906;6.972;2023-05-29T09:38:08;101547.50;;;19.14;49.60
54194;BME280;40102;50.906;6.972;2023-05-29T09:40:35;101543.56;;;19.18;49.73
54194;BME280;40102;50.906;6.972;2023-05-29T09:43:02;101547.75;;;19.22;49.44
54194;BME280;40102;50.906;6.972;2023-05-29T09:45:30;101541.34;;;19.23;49.30
54194;BME280;40102;50.906;6.972;2023-05-29T09:47:56;101550.22;;;19.25;49.48
54194;BME280;40102;50.906;6.972;2023-05-29T09:50:25;101547.16;;;19.29;49.10
54194;BME280;40102;50.906;6.972;2023-05-29T09:52:50;101541.13;;;19.26;49.11
54194;BME280;40102;50.906;6.972;2023-05-29T09:55:20;101556.03;;;19.31;49.12
54194;BME280;40102;50.906;6.972;2023-05-29T09:57:46;101538.91;;;19.31;48.95
54194;BME280;40102;50.906;6.972;2023-05-29T10:00:14;101542.97;;;19.36;49.25
54194;BME280;40102;50.906;6.972;2023-05-29T10:02:40;101545.31;;;19.41;49.56
54194;BME280;40102;50.906;6.972;2023-05-29T10:05:08;101540.88;;;19.40;49.24
54194;BME280;40102;50.906;6.972;2023-05-29T10:07:36;101541.50;;;19.44;49.36
54194;BME280;40102;50.906;6.972;2023-05-29T10:10:03;101544.22;;;19.44;49.27
54194;BME280;40102;50.906;6.972;2023-05-29T10:12:31;101534.47;;;19.41;49.29
54194;BME280;40102;50.906;6.972;2023-05-29T10:15:01;101541.63;;;19.42;49.16
54194;BME280;40102;50.906;6.972;2023-05-29T10:17:32;101539.66;;;19.44;49.44
54194;BME280;40102;50.906;6.972;2023-05-29T10:20:01;101536.56;;;19.49;49.84
54194;BME280;40102;50.906;6.972;2023-05-29T10:22:28;101537.31;;;19.51;49.97
54194;BME280;40102;50.906;6.972;2023-05-29T10:24:56;101534.13;;;19.57;49.65
54194;BME280;40102;50.906;6.972;2023-05-29T10:27:23;101546.47;;;19.61;49.69
54194;BME280;40102;50.906;6.972;2023-05-29T10:32:27;101552.50;;;19.64;49.48
54194;BME280;40102;50.906;6.972;2023-05-29T10:37:32;101543.75;;;19.61;49.17
54194;BME280;40102;50.906;6.972;2023-05-29T10:40:05;101556.22;;;19.63;49.36
54194;BME280;40102;50.906;6.972;2023-05-29T10:42:41;101553.50;;;19.63;49.54
54194;BME280;40102;50.906;6.972;2023-05-29T10:45:08;101541.03;;;19.61;49.13
54194;BME280;40102;50.906;6.972;2023-05-29T10:47:34;101544.25;;;19.66;49.10
54194;BME280;40102;50.906;6.972;2023-05-29T10:50:00;101543.13;;;19.68;48.80
54194;BME280;40102;50.906;6.972;2023-05-29T10:52:26;101536.72;;;19.69;49.06
54194;BME280;40102;50.906;6.972;2023-05-29T10:54:53;101534.88;;;19.70;49.13
54194;BME280;40102;50.906;6.972;2023-05-29T10:57:21;101540.03;;;19.73;49.86
54194;BME280;40102;50.906;6.972;2023-05-29T10:59:46;101534.50;;;19.75;49.45
54194;BME280;40102;50.906;6.972;2023-05-29T11:02:17;101528.06;;;19.76;49.74
54194;BME280;40102;50.906;6.972;2023-05-29T11:04:43;101525.13;;;19.79;49.82
54194;BME280;40102;50.906;6.972;2023-05-29T11:07:32;101529.31;;;19.83;49.63
54194;BME280;40102;50.906;6.972;2023-05-29T11:10:10;101527.31;;;19.85;49.81
54194;BME280;40102;50.906;6.972;2023-05-29T11:12:56;101518.19;;;19.86;49.26
54194;BME280;40102;50.906;6.972;2023-05-29T11:15:21;101525.34;;;19.87;49.58
54194;BME280;40102;50.906;6.972;2023-05-29T11:17:46;101523.38;;;19.89;49.19
54194;BME280;40102;50.906;6.972;2023-05-29T11:23:02;101513.25;;;19.91;49.60
54194;BME280;40102;50.906;6.972;2023-05-29T11:25:28;101514.97;;;19.92;49.31
54194;BME280;40102;50.906;6.972;2023-05-29T11:27:54;101521.88;;;19.96;49.33
54194;BME280;40102;50.906;6.972;2023-05-29T11:30:20;101517.91;;;20.00;49.63
54194;BME280;40102;50.906;6.972;2023-05-29T11:32:46;101507.28;;;20.08;49.91
54194;BME280;40102;50.906;6.972;2023-05-29T11:35:13;101513.69;;;20.18;50.09
54194;BME280;40102;50.906;6.972;2023-05-29T11:37:40;101506.00;;;20.23;49.84
54194;BME280;40102;50.906;6.972;2023-05-29T11:40:08;101507.22;;;20.30;49.16
54194;BME280;40102;50.906;6.972;2023-05-29T11:42:41;101508.56;;;20.36;48.96
54194;BME280;40102;50.906;6.972;2023-05-29T11:47:54;101503.75;;;20.40;48.97
54194;BME280;40102;50.906;6.972;2023-05-29T11:50:30;101513.25;;;20.45;48.84
54194;BME280;40102;50.906;6.972;2023-05-29T11:52:57;101508.28;;;20.50;48.61
54194;BME280;40102;50.906;6.972;2023-05-29T11:55:24;101493.69;;;20.51;48.30
54194;BME280;40102;50.906;6.972;2023-05-29T11:57:51;101500.59;;;20.55;48.53
54194;BME280;40102;50.906;6.972;2023-05-29T12:00:20;101490.41;;;20.68;49.65
54194;BME280;40102;50.906;6.972;2023-05-29T12:02:47;101489.38;;;20.90;50.14
54194;BME280;40102;50.906;6.972;2023-05-29T12:05:15;101491.34;;;21.09;48.93
54194;BME280;40102;50.906;6.972;2023-05-29T12:07:52;101493.13;;;21.20;47.99
54194;BME280;40102;50.906;6.972;2023-05-29T12:10:20;101486.16;;;21.27;47.94
54194;BME280;40102;50.906;6.972;2023-05-29T12:12:59;101489.34;;;21.32;47.10
54194;BME280;40102;50.906;6.972;2023-05-29T12:15:26;101487.34;;;21.34;47.32
54194;BME280;40102;50.906;6.972;2023-05-29T12:17:53;101490.56;;;21.49;47.33
54194;BME280;40102;50.906;6.972;2023-05-29T12:20:22;101483.03;;;21.62;47.60
54194;BME280;40102;50.906;6.972;2023-05-29T12:22:48;101485.78;;;21.72;46.48
54194;BME280;40102;50.906;6.972;2023-05-29T12:25:19;101475.88;;;21.71;45.73
54194;BME280;40102;50.906;6.972;2023-05-29T12:27:46;101472.00;;;21.63;45.56
54194;BME280;40102;50.906;6.972;2023-05-29T12:30:22;101475.03;;;21.70;46.02
54194;BME280;40102;50.906;6.972;2023-05-29T12:32:49;101481.50;;;21.79;45.68
54194;BME280;40102;50.906;6.972;2023-05-29T12:40:18;101493.28;;;21.98;45.77
54194;BME280;40102;50.906;6.972;2023-05-29T12:42:45;101493.78;;;22.13;46.56
54194;BME280;40102;50.906;6.972;2023-05-29T12:45:11;101498.53;;;22.30;45.65
54194;BME280;40102;50.906;6.972;2023-05-29T12:47:37;101495.22;;;22.46;45.04
54194;BME280;40102;50.906;6.972;2023-05-29T12:50:19;101496.38;;;22.63;45.37
54194;BME280;40102;50.906;6.972;2023-05-29T12:52:46;101485.03;;;22.77;44.10
54194;BME280;40102;50.906;6.972;2023-05-29T12:55:11;101489.75;;;22.94;44.60
54194;BME280;40102;50.906;6.972;2023-05-29T12:57:37;101491.44;;;23.15;44.70
54194;BME280;40102;50.906;6.972;2023-05-29T13:00:02;101494.09;;;23.34;43.49
54194;BME280;40102;50.906;6.972;2023-05-29T13:02:28;101492.22;;;23.35;42.17
54194;BME280;40102;50.906;6.972;2023-05-29T13:04:54;101494.69;;;23.28;42.58
54194;BME280;40102;50.906;6.972;2023-05-29T13:07:20;101483.72;;;23.38;42.88
54194;BME280;40102;50.906;6.972;2023-05-29T13:09:45;101486.97;;;23.51;42.03